sensor_id;sensor_type;location;lat;lon;timestamp;temperature;humidity
71175;DHT22;58876;51.994;4.472;2023-06-10T00:02:10;23.07;55.12
71175;DHT22;58876;51.994;4.472;2023-06-10T00:04:36;23.00;55.06
71175;DHT22;58876;51.994;4.472;2023-06-10T00:07:05;22.92;54.87
71175;DHT22;58876;51.994;4.472;2023-06-10T00:09:35;22.90;55.20
71175;DHT22;58876;51.994;4.472;2023-06-10T00:12:05;22.84;54.89
71175;DHT22;58876;51.994;4.472;2023-06-10T00:14:32;22.83;55.13
71175;DHT22;58876;51.994;4.472;2023-06-10T00:16:58;22.77;55.12
71175;DHT22;58876;51.994;4.472;2023-06-10T00:19:24;22.71;55.14
71175;DHT22;58876;51.994;4.472;2023-06-10T00:21:51;22.67;55.23
71175;DHT22;58876;51.994;4.472;2023-06-10T00:24:18;22.63;55.76
71175;DHT22;58876;51.994;4.472;2023-06-10T00:26:43;22.63;55.78
71175;DHT22;58876;51.994;4.472;2023-06-10T00:29:09;22.57;55.98
71175;DHT22;58876;51.994;4.472;2023-06-10T00:31:36;22.53;56.06
71175;DHT22;58876;51.994;4.472;2023-06-10T00:34:02;22.44;55.95
71175;DHT22;58876;51.994;4.472;2023-06-10T00:36:28;22.44;56.27
71175;DHT22;58876;51.994;4.472;2023-06-10T00:38:53;22.40;56.02
71175;DHT22;58876;51.994;4.472;2023-06-10T00:41:19;22.32;56.15
71175;DHT22;58876;51.994;4.472;2023-06-10T00:43:44;22.26;55.85
71175;DHT22;58876;51.994;4.472;2023-06-10T00:46:12;22.26;56.02
71175;DHT22;58876;51.994;4.472;2023-06-10T00:48:40;22.25;56.11
71175;DHT22;58876;51.994;4.472;2023-06-10T00:51:06;22.22;56.05
71175;DHT22;58876;51.994;4.472;2023-06-10T00:53:36;22.22;56.66
71175;DHT22;58876;51.994;4.472;2023-06-10T00:56:03;22.17;56.39
71175;DHT22;58876;51.994;4.472;2023-06-10T00:58:29;22.13;56.24
71175;DHT22;58876;51.994;4.472;2023-06-10T01:00:55;22.12;56.12
71175;DHT22;58876;51.994;4.472;2023-06-10T01:03:20;22.08;56.11
71175;DHT22;58876;51.994;4.472;2023-06-10T01:05:53;22.06;56.13
71175;DHT22;58876;51.994;4.472;2023-06-10T01:08:42;22.02;56.20
71175;DHT22;58876;51.994;4.472;2023-06-10T01:11:19;21.98;56.64
71175;DHT22;58876;51.994;4.472;2023-06-10T01:13:50;21.94;56.39
71175;DHT22;58876;51.994;4.472;2023-06-10T01:16:18;21.92;56.34
71175;DHT22;58876;51.994;4.472;2023-06-10T01:18:44;21.88;56.71
71175;DHT22;58876;51.994;4.472;2023-06-10T01:21:22;21.82;56.35
71175;DHT22;58876;51.994;4.472;2023-06-10T01:23:53;21.77;56.58
71175;DHT22;58876;51.994;4.472;2023-06-10T01:26:28;21.75;56.73
71175;DHT22;58876;51.994;4.472;2023-06-10T01:29:09;21.73;56.82
71175;DHT22;58876;51.994;4.472;2023-06-10T01:31:49;21.71;56.77
71175;DHT22;58876;51.994;4.472;2023-06-10T01:34:18;21.65;56.66
71175;DHT22;58876;51.994;4.472;2023-06-10T01:36:47;21.64;57.08
71175;DHT22;58876;51.994;4.472;2023-06-10T01:39:16;21.58;57.17
71175;DHT22;58876;51.994;4.472;2023-06-10T01:41:42;21.53;56.97
71175;DHT22;58876;51.994;4.472;2023-06-10T01:44:09;21.45;57.22
71175;DHT22;58876;51.994;4.472;2023-06-10T01:46:34;21.43;57.41
71175;DHT22;58876;51.994;4.472;2023-06-10T01:49:00;21.37;57.19
71175;DHT22;58876;51.994;4.472;2023-06-10T01:51:26;21.34;57.64
71175;DHT22;58876;51.994;4.472;2023-06-10T01:53:51;21.33;57.10
71175;DHT22;58876;51.994;4.472;2023-06-10T01:56:16;21.31;57.02
71175;DHT22;58876;51.994;4.472;2023-06-10T01:58:45;21.28;57.01
71175;DHT22;58876;51.994;4.472;2023-06-10T02:01:10;21.24;57.80
71175;DHT22;58876;51.994;4.472;2023-06-10T02:03:36;21.23;57.64
71175;DHT22;58876;51.994;4.472;2023-06-10T02:06:01;21.20;57.44
71175;DHT22;58876;51.994;4.472;2023-06-10T02:08:27;21.11;57.17
71175;DHT22;58876;51.994;4.472;2023-06-10T02:10:53;21.08;57.75
71175;DHT22;58876;51.994;4.472;2023-06-10T02:13:19;21.03;57.20
71175;DHT22;58876;51.994;4.472;2023-06-10T02:15:44;21.06;57.19
71175;DHT22;58876;51.994;4.472;2023-06-10T02:18:10;20.99;57.28
71175;DHT22;58876;51.994;4.472;2023-06-10T02:20:37;20.97;56.99
71175;DHT22;58876;51.994;4.472;2023-06-10T02:23:03;20.93;57.71
71175;DHT22;58876;51.994;4.472;2023-06-10T02:25:29;20.86;57.29
71175;DHT22;58876;51.994;4.472;2023-06-10T02:27:54;20.86;57.48
71175;DHT22;58876;51.994;4.472;2023-06-10T02:30:20;20.80;57.41
71175;DHT22;58876;51.994;4.472;2023-06-10T02:32:45;20.77;57.15
71175;DHT22;58876;51.994;4.472;2023-06-10T02:35:16;20.79;57.27
71175;DHT22;58876;51.994;4.472;2023-06-10T02:37:43;20.77;57.32
71175;DHT22;58876;51.994;4.472;2023-06-10T02:40:09;20.75;57.66
71175;DHT22;58876;51.994;4.472;2023-06-10T02:42:36;20.72;57.52
71175;DHT22;58876;51.994;4.472;2023-06-10T02:45:01;20.72;57.82
71175;DHT22;58876;51.994;4.472;2023-06-10T02:47:27;20.69;57.48
71175;DHT22;58876;51.994;4.472;2023-06-10T02:49:52;20.65;57.61
71175;DHT22;58876;51.994;4.472;2023-06-10T02:52:18;20.56;57.60
71175;DHT22;58876;51.994;4.472;2023-06-10T02:54:43;20.61;57.44
71175;DHT22;58876;51.994;4.472;2023-06-10T02:57:10;20.59;57.58
71175;DHT22;58876;51.994;4.472;2023-06-10T02:59:35;20.58;57.31
71175;DHT22;58876;51.994;4.472;2023-06-10T03:02:01;20.58;57.08
71175;DHT22;58876;51.994;4.472;2023-06-10T03:04:26;20.55;57.71
71175;DHT22;58876;51.994;4.472;2023-06-10T03:06:54;20.53;57.81
71175;DHT22;58876;51.994;4.472;2023-06-10T03:09:20;20.55;57.50
71175;DHT22;58876;51.994;4.472;2023-06-10T03:11:45;20.45;57.74
71175;DHT22;58876;51.994;4.472;2023-06-10T03:14:11;20.42;57.62
71175;DHT22;58876;51.994;4.472;2023-06-10T03:16:36;20.41;57.49
71175;DHT22;58876;51.994;4.472;2023-06-10T03:19:06;20.39;57.49
71175;DHT22;58876;51.994;4.472;2023-06-10T03:21:33;20.41;57.45
71175;DHT22;58876;51.994;4.472;2023-06-10T03:23:59;20.38;57.55
71175;DHT22;58876;51.994;4.472;2023-06-10T03:26:26;20.37;57.25
71175;DHT22;58876;51.994;4.472;2023-06-10T03:28:53;20.38;57.38
71175;DHT22;58876;51.994;4.472;2023-06-10T03:31:18;20.32;57.30
71175;DHT22;58876;51.994;4.472;2023-06-10T03:33:44;20.28;57.35
71175;DHT22;58876;51.994;4.472;2023-06-10T03:36:10;20.25;57.07
71175;DHT22;58876;51.994;4.472;2023-06-10T03:38:35;20.28;57.17
71175;DHT22;58876;51.994;4.472;2023-06-10T03:41:01;20.27;57.34
71175;DHT22;58876;51.994;4.472;2023-06-10T03:43:27;20.24;57.30
71175;DHT22;58876;51.994;4.472;2023-06-10T03:45:53;20.25;57.57
71175;DHT22;58876;51.994;4.472;2023-06-10T03:48:18;20.24;57.53
71175;DHT22;58876;51.994;4.472;2023-06-10T03:50:44;20.20;57.47
71175;DHT22;58876;51.994;4.472;2023-06-10T03:53:09;20.20;57.53
71175;DHT22;58876;51.994;4.472;2023-06-10T03:55:35;20.20;57.50
71175;DHT22;58876;51.994;4.472;2023-06-10T03:58:01;20.18;57.62
71175;DHT22;58876;51.994;4.472;2023-06-10T04:00:27;20.16;57.53
71175;DHT22;58876;51.994;4.472;2023-06-10T04:02:52;20.18;57.17
71175;DHT22;58876;51.994;4.472;2023-06-10T04:05:19;20.21;57.10
71175;DHT22;58876;51.994;4.472;2023-06-10T04:07:48;20.22;57.15
71175;DHT22;58876;51.994;4.472;2023-06-10T04:10:14;20.22;57.20
71175;DHT22;58876;51.994;4.472;2023-06-10T04:12:40;20.27;56.94
71175;DHT22;58876;51.994;4.472;2023-06-10T04:15:06;20.29;56.76
71175;DHT22;58876;51.994;4.472;2023-06-10T04:17:32;20.31;56.84
71175;DHT22;58876;51.994;4.472;2023-06-10T04:19:57;20.32;56.64
71175;DHT22;58876;51.994;4.472;2023-06-10T04:22:24;20.35;56.84
71175;DHT22;58876;51.994;4.472;2023-06-10T04:24:50;20.37;56.76
71175;DHT22;58876;51.994;4.472;2023-06-10T04:27:15;20.38;57.26
71175;DHT22;58876;51.994;4.472;2023-06-10T04:29:40;20.37;56.78
71175;DHT22;58876;51.994;4.472;2023-06-10T04:32:06;20.31;56.89
71175;DHT22;58876;51.994;4.472;2023-06-10T04:34:36;20.38;56.84
71175;DHT22;58876;51.994;4.472;2023-06-10T04:37:04;20.39;56.72
71175;DHT22;58876;51.994;4.472;2023-06-10T04:39:30;20.44;56.69
71175;DHT22;58876;51.994;4.472;2023-06-10T04:41:55;20.52;56.75
71175;DHT22;58876;51.994;4.472;2023-06-10T04:44:21;20.58;56.96
71175;DHT22;58876;51.994;4.472;2023-06-10T04:46:47;20.56;56.27
71175;DHT22;58876;51.994;4.472;2023-06-10T04:49:13;20.64;56.21
71175;DHT22;58876;51.994;4.472;2023-06-10T04:51:41;20.71;56.04
71175;DHT22;58876;51.994;4.472;2023-06-10T04:54:07;20.76;55.78
71175;DHT22;58876;51.994;4.472;2023-06-10T04:56:32;20.79;55.87
71175;DHT22;58876;51.994;4.472;2023-06-10T04:58:58;20.85;56.51
71175;DHT22;58876;51.994;4.472;2023-06-10T05:01:24;20.85;56.12
71175;DHT22;58876;51.994;4.472;2023-06-10T05:03:50;20.89;56.05
71175;DHT22;58876;51.994;4.472;2023-06-10T05:06:16;20.95;56.16
71175;DHT22;58876;51.994;4.472;2023-06-10T05:08:41;21.00;55.73
71175;DHT22;58876;51.994;4.472;2023-06-10T05:11:07;21.04;56.25
71175;DHT22;58876;51.994;4.472;2023-06-10T05:13:32;21.10;56.03
71175;DHT22;58876;51.994;4.472;2023-06-10T05:15:58;21.07;56.26
71175;DHT22;58876;51.994;4.472;2023-06-10T05:18:23;21.14;55.47
71175;DHT22;58876;51.994;4.472;2023-06-10T05:20:49;21.22;55.53
71175;DHT22;58876;51.994;4.472;2023-06-10T05:23:14;21.27;56.05
71175;DHT22;58876;51.994;4.472;2023-06-10T05:25:40;21.31;55.41
71175;DHT22;58876;51.994;4.472;2023-06-10T05:28:06;21.37;55.22
71175;DHT22;58876;51.994;4.472;2023-06-10T05:30:35;21.28;55.24
71175;DHT22;58876;51.994;4.472;2023-06-10T05:33:01;21.30;55.44
71175;DHT22;58876;51.994;4.472;2023-06-10T05:35:26;21.40;55.26
71175;DHT22;58876;51.994;4.472;2023-06-10T05:37:52;21.40;55.08
71175;DHT22;58876;51.994;4.472;2023-06-10T05:40:17;21.48;55.12
71175;DHT22;58876;51.994;4.472;2023-06-10T05:42:42;21.44;55.08
71175;DHT22;58876;51.994;4.472;2023-06-10T05:45:08;21.37;55.05
71175;DHT22;58876;51.994;4.472;2023-06-10T05:47:34;21.38;54.98
71175;DHT22;58876;51.994;4.472;2023-06-10T05:49:59;21.44;54.78
71175;DHT22;58876;51.994;4.472;2023-06-10T05:52:25;21.34;54.76
71175;DHT22;58876;51.994;4.472;2023-06-10T05:54:51;21.38;55.01
71175;DHT22;58876;51.994;4.472;2023-06-10T05:57:16;21.45;54.85
71175;DHT22;58876;51.994;4.472;2023-06-10T05:59:42;21.51;54.95
71175;DHT22;58876;51.994;4.472;2023-06-10T06:02:07;21.64;55.32
71175;DHT22;58876;51.994;4.472;2023-06-10T06:04:33;21.69;54.67
71175;DHT22;58876;51.994;4.472;2023-06-10T06:06:59;21.86;54.60
71175;DHT22;58876;51.994;4.472;2023-06-10T06:09:24;21.92;54.08
71175;DHT22;58876;51.994;4.472;2023-06-10T06:11:50;21.88;53.92
71175;DHT22;58876;51.994;4.472;2023-06-10T06:14:15;21.92;54.00
71175;DHT22;58876;51.994;4.472;2023-06-10T06:16:40;22.09;54.47
71175;DHT22;58876;51.994;4.472;2023-06-10T06:19:06;22.23;53.57
71175;DHT22;58876;51.994;4.472;2023-06-10T06:21:31;22.43;54.02
71175;DHT22;58876;51.994;4.472;2023-06-10T06:23:57;22.59;52.87
71175;DHT22;58876;51.994;4.472;2023-06-10T06:26:23;22.68;52.78
71175;DHT22;58876;51.994;4.472;2023-06-10T06:28:48;22.83;52.20
71175;DHT22;58876;51.994;4.472;2023-06-10T06:31:14;22.90;52.41
71175;DHT22;58876;51.994;4.472;2023-06-10T06:33:39;23.02;53.03
71175;DHT22;58876;51.994;4.472;2023-06-10T06:36:05;23.18;52.32
71175;DHT22;58876;51.994;4.472;2023-06-10T06:38:30;23.31;51.62
71175;DHT22;58876;51.994;4.472;2023-06-10T06:40:56;23.41;51.19
71175;DHT22;58876;51.994;4.472;2023-06-10T06:43:21;23.45;51.12
71175;DHT22;58876;51.994;4.472;2023-06-10T06:45:47;23.59;51.60
71175;DHT22;58876;51.994;4.472;2023-06-10T06:48:12;23.72;51.61
71175;DHT22;58876;51.994;4.472;2023-06-10T06:50:38;23.80;50.54
71175;DHT22;58876;51.994;4.472;2023-06-10T06:53:04;23.94;50.53
71175;DHT22;58876;51.994;4.472;2023-06-10T06:55:29;24.10;50.06
71175;DHT22;58876;51.994;4.472;2023-06-10T06:57:55;24.21;49.22
71175;DHT22;58876;51.994;4.472;2023-06-10T07:00:21;24.34;49.78
71175;DHT22;58876;51.994;4.472;2023-06-10T07:02:46;24.30;48.62
71175;DHT22;58876;51.994;4.472;2023-06-10T07:05:12;24.42;50.02
71175;DHT22;58876;51.994;4.472;2023-06-10T07:07:37;24.59;49.70
71175;DHT22;58876;51.994;4.472;2023-06-10T07:10:03;24.80;49.27
71175;DHT22;58876;51.994;4.472;2023-06-10T07:12:30;24.98;47.82
71175;DHT22;58876;51.994;4.472;2023-06-10T07:14:55;25.09;47.46
71175;DHT22;58876;51.994;4.472;2023-06-10T07:17:20;25.15;48.11
71175;DHT22;58876;51.994;4.472;2023-06-10T07:19:46;25.27;46.63
71175;DHT22;58876;51.994;4.472;2023-06-10T07:22:11;25.46;46.72
71175;DHT22;58876;51.994;4.472;2023-06-10T07:24:37;25.68;46.28
71175;DHT22;58876;51.994;4.472;2023-06-10T07:27:02;25.88;46.00
71175;DHT22;58876;51.994;4.472;2023-06-10T07:29:28;26.02;44.99
71175;DHT22;58876;51.994;4.472;2023-06-10T07:31:54;26.05;44.80
71175;DHT22;58876;51.994;4.472;2023-06-10T07:34:19;26.37;46.09
71175;DHT22;58876;51.994;4.472;2023-06-10T07:36:44;26.61;43.39
71175;DHT22;58876;51.994;4.472;2023-06-10T07:39:10;26.52;43.56
71175;DHT22;58876;51.994;4.472;2023-06-10T07:41:35;26.57;43.44
71175;DHT22;58876;51.994;4.472;2023-06-10T07:44:01;26.74;43.58
71175;DHT22;58876;51.994;4.472;2023-06-10T07:46:27;26.98;42.99
71175;DHT22;58876;51.994;4.472;2023-06-10T07:48:54;27.31;42.14
71175;DHT22;58876;51.994;4.472;2023-06-10T07:51:20;27.89;41.26
71175;DHT22;58876;51.994;4.472;2023-06-10T07:53:46;28.50;39.44
71175;DHT22;58876;51.994;4.472;2023-06-10T07:56:12;28.92;39.27
71175;DHT22;58876;51.994;4.472;2023-06-10T07:58:37;29.76;39.77
71175;DHT22;58876;51.994;4.472;2023-06-10T08:01:03;30.14;36.89
71175;DHT22;58876;51.994;4.472;2023-06-10T08:03:28;30.73;37.10
71175;DHT22;58876;51.994;4.472;2023-06-10T08:05:53;31.35;35.24
71175;DHT22;58876;51.994;4.472;2023-06-10T08:08:19;31.27;35.23
71175;DHT22;58876;51.994;4.472;2023-06-10T08:10:44;31.10;35.90
71175;DHT22;58876;51.994;4.472;2023-06-10T08:13:10;31.59;35.61
71175;DHT22;58876;51.994;4.472;2023-06-10T08:15:35;31.75;34.86
71175;DHT22;58876;51.994;4.472;2023-06-10T08:18:01;31.92;34.45
71175;DHT22;58876;51.994;4.472;2023-06-10T08:20:26;31.93;34.52
71175;DHT22;58876;51.994;4.472;2023-06-10T08:22:55;31.82;35.54
71175;DHT22;58876;51.994;4.472;2023-06-10T08:25:20;31.69;34.31
71175;DHT22;58876;51.994;4.472;2023-06-10T08:27:47;31.41;35.42
71175;DHT22;58876;51.994;4.472;2023-06-10T08:30:13;31.35;36.33
71175;DHT22;58876;51.994;4.472;2023-06-10T08:32:39;31.71;36.53
71175;DHT22;58876;51.994;4.472;2023-06-10T08:35:05;32.17;34.97
71175;DHT22;58876;51.994;4.472;2023-06-10T08:37:30;31.86;35.86
71175;DHT22;58876;51.994;4.472;2023-06-10T08:39:56;32.44;35.26
71175;DHT22;58876;51.994;4.472;2023-06-10T08:42:45;32.49;32.86
71175;DHT22;58876;51.994;4.472;2023-06-10T08:45:18;32.74;35.03
71175;DHT22;58876;51.994;4.472;2023-06-10T08:47:50;32.94;32.50
71175;DHT22;58876;51.994;4.472;2023-06-10T08:50:18;32.92;32.28
71175;DHT22;58876;51.994;4.472;2023-06-10T08:52:48;32.32;33.87
71175;DHT22;58876;51.994;4.472;2023-06-10T08:55:18;32.49;34.14
71175;DHT22;58876;51.994;4.472;2023-06-10T08:57:48;32.65;33.99
71175;DHT22;58876;51.994;4.472;2023-06-10T09:00:15;32.34;33.11
71175;DHT22;58876;51.994;4.472;2023-06-10T09:02:42;32.63;33.65
71175;DHT22;58876;51.994;4.472;2023-06-10T09:05:09;33.26;33.60
71175;DHT22;58876;51.994;4.472;2023-06-10T09:07:35;33.32;31.98
71175;DHT22;58876;51.994;4.472;2023-06-10T09:10:03;33.45;32.60
71175;DHT22;58876;51.994;4.472;2023-06-10T09:12:29;33.00;32.56
71175;DHT22;58876;51.994;4.472;2023-06-10T09:14:55;33.22;33.75
71175;DHT22;58876;51.994;4.472;2023-06-10T09:17:20;33.19;33.78
71175;DHT22;58876;51.994;4.472;2023-06-10T09:19:47;32.91;32.97
71175;DHT22;58876;51.994;4.472;2023-06-10T09:22:13;32.70;32.20
71175;DHT22;58876;51.994;4.472;2023-06-10T09:24:39;32.41;33.13
71175;DHT22;58876;51.994;4.472;2023-06-10T09:27:06;32.82;33.69
71175;DHT22;58876;51.994;4.472;2023-06-10T09:29:46;33.36;34.32
71175;DHT22;58876;51.994;4.472;2023-06-10T09:32:13;33.38;33.29
71175;DHT22;58876;51.994;4.472;2023-06-10T09:34:39;33.28;32.96
71175;DHT22;58876;51.994;4.472;2023-06-10T09:37:05;32.97;32.21
71175;DHT22;58876;51.994;4.472;2023-06-10T09:39:31;32.53;32.31
71175;DHT22;58876;51.994;4.472;2023-06-10T09:41:56;32.39;32.90
71175;DHT22;58876;51.994;4.472;2023-06-10T09:44:22;32.39;33.22
71175;DHT22;58876;51.994;4.472;2023-06-10T09:46:49;32.65;34.72
71175;DHT22;58876;51.994;4.472;2023-06-10T09:49:18;32.81;32.02
71175;DHT22;58876;51.994;4.472;2023-06-10T09:51:54;32.27;34.30
71175;DHT22;58876;51.994;4.472;2023-06-10T09:54:21;32.32;34.30
71175;DHT22;58876;51.994;4.472;2023-06-10T09:56:48;32.54;34.03
71175;DHT22;58876;51.994;4.472;2023-06-10T09:59:14;32.74;33.08
71175;DHT22;58876;51.994;4.472;2023-06-10T10:01:39;32.65;34.37
71175;DHT22;58876;51.994;4.472;2023-06-10T10:04:05;32.49;32.58
71175;DHT22;58876;51.994;4.472;2023-06-10T10:06:31;32.37;34.14
71175;DHT22;58876;51.994;4.472;2023-06-10T10:08:57;32.39;33.74
71175;DHT22;58876;51.994;4.472;2023-06-10T10:11:23;32.26;33.11
71175;DHT22;58876;51.994;4.472;2023-06-10T10:13:52;32.10;34.76
71175;DHT22;58876;51.994;4.472;2023-06-10T10:16:30;32.40;34.19
71175;DHT22;58876;51.994;4.472;2023-06-10T10:19:11;32.53;32.90
71175;DHT22;58876;51.994;4.472;2023-06-10T10:21:53;32.57;34.48
71175;DHT22;58876;51.994;4.472;2023-06-10T10:24:21;32.67;33.96
71175;DHT22;58876;51.994;4.472;2023-06-10T10:26:50;32.78;32.50
71175;DHT22;58876;51.994;4.472;2023-06-10T10:29:39;32.71;32.91
71175;DHT22;58876;51.994;4.472;2023-06-10T10:32:06;32.67;32.78
71175;DHT22;58876;51.994;4.472;2023-06-10T10:37:03;32.74;33.17
71175;DHT22;58876;51.994;4.472;2023-06-10T10:39:29;32.61;32.14
71175;DHT22;58876;51.994;4.472;2023-06-10T10:41:57;32.53;32.83
71175;DHT22;58876;51.994;4.472;2023-06-10T10:44:24;32.75;32.56
71175;DHT22;58876;51.994;4.472;2023-06-10T10:46:50;32.81;32.84
71175;DHT22;58876;51.994;4.472;2023-06-10T10:49:18;33.02;32.78
71175;DHT22;58876;51.994;4.472;2023-06-10T10:51:57;33.07;31.84
71175;DHT22;58876;51.994;4.472;2023-06-10T10:54:36;32.92;32.85
71175;DHT22;58876;51.994;4.472;2023-06-10T10:57:12;33.02;32.51
71175;DHT22;58876;51.994;4.472;2023-06-10T10:59:57;32.56;32.09
71175;DHT22;58876;51.994;4.472;2023-06-10T11:05:07;32.95;33.36
71175;DHT22;58876;51.994;4.472;2023-06-10T11:07:34;33.19;33.67
71175;DHT22;58876;51.994;4.472;2023-06-10T11:10:11;33.28;31.70
71175;DHT22;58876;51.994;4.472;2023-06-10T11:15:12;33.35;32.88
71175;DHT22;58876;51.994;4.472;2023-06-10T11:18:13;33.25;30.15
71175;DHT22;58876;51.994;4.472;2023-06-10T11:28:36;32.67;33.14
71175;DHT22;58876;51.994;4.472;2023-06-10T11:31:01;32.67;33.09
71175;DHT22;58876;51.994;4.472;2023-06-10T11:33:27;33.10;31.19
71175;DHT22;58876;51.994;4.472;2023-06-10T11:35:53;33.35;30.34
71175;DHT22;58876;51.994;4.472;2023-06-10T11:38:19;33.23;30.16
71175;DHT22;58876;51.994;4.472;2023-06-10T11:40:51;33.12;30.63
71175;DHT22;58876;51.994;4.472;2023-06-10T11:43:17;33.10;30.26
71175;DHT22;58876;51.994;4.472;2023-06-10T11:45:54;33.05;30.36
71175;DHT22;58876;51.994;4.472;2023-06-10T11:48:20;33.33;31.21
71175;DHT22;58876;51.994;4.472;2023-06-10T11:50:45;33.58;29.45
71175;DHT22;58876;51.994;4.472;2023-06-10T11:53:11;33.87;29.38
71175;DHT22;58876;51.994;4.472;2023-06-10T11:55:45;33.89;27.57
71175;DHT22;58876;51.994;4.472;2023-06-10T11:58:18;33.90;29.21
71175;DHT22;58876;51.994;4.472;2023-06-10T12:00:49;34.07;29.04
71175;DHT22;58876;51.994;4.472;2023-06-10T12:03:15;33.89;27.67
71175;DHT22;58876;51.994;4.472;2023-06-10T12:05:53;34.01;29.38
71175;DHT22;58876;51.994;4.472;2023-06-10T12:08:18;34.04;30.32
71175;DHT22;58876;51.994;4.472;2023-06-10T12:10:47;33.97;29.42
71175;DHT22;58876;51.994;4.472;2023-06-10T12:13:12;34.10;29.14
71175;DHT22;58876;51.994;4.472;2023-06-10T12:15:38;34.25;27.75
71175;DHT22;58876;51.994;4.472;2023-06-10T12:18:04;34.20;27.65
71175;DHT22;58876;51.994;4.472;2023-06-10T12:20:31;34.01;28.98
71175;DHT22;58876;51.994;4.472;2023-06-10T12:23:00;34.06;29.76
71175;DHT22;58876;51.994;4.472;2023-06-10T12:25:33;34.20;29.22
71175;DHT22;58876;51.994;4.472;2023-06-10T12:27:59;33.83;30.12
71175;DHT22;58876;51.994;4.472;2023-06-10T12:30:25;34.03;29.50
71175;DHT22;58876;51.994;4.472;2023-06-10T12:32:52;34.06;29.35
71175;DHT22;58876;51.994;4.472;2023-06-10T12:35:22;34.03;28.57
71175;DHT22;58876;51.994;4.472;2023-06-10T12:38:09;34.18;30.73
71175;DHT22;58876;51.994;4.472;2023-06-10T12:40:38;34.37;28.23
71175;DHT22;58876;51.994;4.472;2023-06-10T12:43:06;34.13;28.68
71175;DHT22;58876;51.994;4.472;2023-06-10T12:45:39;34.34;28.63
71175;DHT22;58876;51.994;4.472;2023-06-10T12:48:11;34.52;29.83
71175;DHT22;58876;51.994;4.472;2023-06-10T12:50:42;34.38;27.95
71175;DHT22;58876;51.994;4.472;2023-06-10T12:53:08;34.43;27.94
71175;DHT22;58876;51.994;4.472;2023-06-10T12:55:34;34.17;27.06
71175;DHT22;58876;51.994;4.472;2023-06-10T12:58:00;34.04;27.91
71175;DHT22;58876;51.994;4.472;2023-06-10T13:00:27;34.16;28.19
71175;DHT22;58876;51.994;4.472;2023-06-10T13:02:59;34.31;28.60
71175;DHT22;58876;51.994;4.472;2023-06-10T13:05:28;34.62;28.71
71175;DHT22;58876;51.994;4.472;2023-06-10T13:07:55;34.79;27.15
71175;DHT22;58876;51.994;4.472;2023-06-10T13:10:21;34.47;26.84
71175;DHT22;58876;51.994;4.472;2023-06-10T13:12:47;34.44;26.98
71175;DHT22;58876;51.994;4.472;2023-06-10T13:15:13;34.49;26.44
71175;DHT22;58876;51.994;4.472;2023-06-10T13:17:40;34.44;27.48
71175;DHT22;58876;51.994;4.472;2023-06-10T13:20:06;34.68;27.76
71175;DHT22;58876;51.994;4.472;2023-06-10T13:22:33;34.94;27.13
71175;DHT22;58876;51.994;4.472;2023-06-10T13:25:01;35.15;27.21
71175;DHT22;58876;51.994;4.472;2023-06-10T13:27:26;35.33;26.33
71175;DHT22;58876;51.994;4.472;2023-06-10T13:29:52;35.47;26.91
71175;DHT22;58876;51.994;4.472;2023-06-10T13:32:18;35.43;25.39
71175;DHT22;58876;51.994;4.472;2023-06-10T13:34:43;35.67;28.16
71175;DHT22;58876;51.994;4.472;2023-06-10T13:37:09;35.64;27.10
71175;DHT22;58876;51.994;4.472;2023-06-10T13:39:35;35.40;26.25
71175;DHT22;58876;51.994;4.472;2023-06-10T13:42:00;34.84;27.48
71175;DHT22;58876;51.994;4.472;2023-06-10T13:44:25;34.75;27.08
71175;DHT22;58876;51.994;4.472;2023-06-10T13:46:51;34.75;27.23
71175;DHT22;58876;51.994;4.472;2023-06-10T13:49:16;34.98;27.48
71175;DHT22;58876;51.994;4.472;2023-06-10T13:51:42;34.65;26.35
71175;DHT22;58876;51.994;4.472;2023-06-10T13:54:07;34.71;26.12
71175;DHT22;58876;51.994;4.472;2023-06-10T13:56:33;34.81;27.92
71175;DHT22;58876;51.994;4.472;2023-06-10T13:59:03;34.92;27.84
71175;DHT22;58876;51.994;4.472;2023-06-10T14:01:31;34.88;26.85
71175;DHT22;58876;51.994;4.472;2023-06-10T14:03:57;34.64;26.59
71175;DHT22;58876;51.994;4.472;2023-06-10T14:06:22;34.75;26.63
71175;DHT22;58876;51.994;4.472;2023-06-10T14:08:48;34.89;27.39
71175;DHT22;58876;51.994;4.472;2023-06-10T14:11:13;34.94;27.07
71175;DHT22;58876;51.994;4.472;2023-06-10T14:13:40;35.07;26.81
71175;DHT22;58876;51.994;4.472;2023-06-10T14:16:05;34.95;27.70
71175;DHT22;58876;51.994;4.472;2023-06-10T14:18:31;35.12;26.56
71175;DHT22;58876;51.994;4.472;2023-06-10T14:20:56;35.06;26.46
71175;DHT22;58876;51.994;4.472;2023-06-10T14:23:22;35.05;25.63
71175;DHT22;58876;51.994;4.472;2023-06-10T14:25:48;34.96;25.99
71175;DHT22;58876;51.994;4.472;2023-06-10T14:28:13;35.19;26.81
71175;DHT22;58876;51.994;4.472;2023-06-10T14:30:38;35.33;26.84
71175;DHT22;58876;51.994;4.472;2023-06-10T14:33:04;35.12;27.32
71175;DHT22;58876;51.994;4.472;2023-06-10T14:35:30;34.82;26.57
71175;DHT22;58876;51.994;4.472;2023-06-10T14:37:56;35.10;26.71
71175;DHT22;58876;51.994;4.472;2023-06-10T14:40:21;34.94;26.59
71175;DHT22;58876;51.994;4.472;2023-06-10T14:42:48;34.51;26.50
71175;DHT22;58876;51.994;4.472;2023-06-10T14:45:13;34.62;26.02
71175;DHT22;58876;51.994;4.472;2023-06-10T14:47:40;34.79;26.67
71175;DHT22;58876;51.994;4.472;2023-06-10T14:50:05;34.85;26.19
71175;DHT22;58876;51.994;4.472;2023-06-10T14:52:31;34.88;26.22
71175;DHT22;58876;51.994;4.472;2023-06-10T14:54:56;34.79;25.51
71175;DHT22;58876;51.994;4.472;2023-06-10T14:57:22;34.75;26.87
71175;DHT22;58876;51.994;4.472;2023-06-10T14:59:48;35.00;27.32
71175;DHT22;58876;51.994;4.472;2023-06-10T15:02:13;35.25;25.78
71175;DHT22;58876;51.994;4.472;2023-06-10T15:04:39;35.37;26.38
71175;DHT22;58876;51.994;4.472;2023-06-10T15:07:04;35.29;25.68
71175;DHT22;58876;51.994;4.472;2023-06-10T15:09:30;35.13;26.67
71175;DHT22;58876;51.994;4.472;2023-06-10T15:11:57;35.15;26.32
71175;DHT22;58876;51.994;4.472;2023-06-10T15:14:22;35.22;25.58
71175;DHT22;58876;51.994;4.472;2023-06-10T15:16:48;35.43;26.60
71175;DHT22;58876;51.994;4.472;2023-06-10T15:19:13;35.51;28.82
71175;DHT22;58876;51.994;4.472;2023-06-10T15:21:39;35.49;28.44
71175;DHT22;58876;51.994;4.472;2023-06-10T15:24:05;35.76;27.19
71175;DHT22;58876;51.994;4.472;2023-06-10T15:26:33;36.15;25.08
71175;DHT22;58876;51.994;4.472;2023-06-10T15:28:58;35.87;25.37
71175;DHT22;58876;51.994;4.472;2023-06-10T15:31:29;35.83;29.03
71175;DHT22;58876;51.994;4.472;2023-06-10T15:33:55;35.83;27.49
71175;DHT22;58876;51.994;4.472;2023-06-10T15:36:21;35.50;28.31
71175;DHT22;58876;51.994;4.472;2023-06-10T15:38:46;35.47;28.39
71175;DHT22;58876;51.994;4.472;2023-06-10T15:41:12;35.53;28.28
71175;DHT22;58876;51.994;4.472;2023-06-10T15:43:38;35.58;28.46
71175;DHT22;58876;51.994;4.472;2023-06-10T15:46:03;35.50;28.05